createdAt,value
2018-09-02T00:00:16.306Z,73.8
2018-09-02T00:01:15.531Z,73.8
2018-09-02T00:02:14.867Z,73.4
2018-09-02T00:03:14.088Z,73.6
2018-09-02T00:04:13.806Z,73.8
2018-09-02T00:05:12.524Z,73.7
2018-09-02T00:06:12.137Z,73.6
2018-09-02T00:06:42.774Z,73.6
2018-09-02T00:07:13.427Z,73.3
2018-09-02T00:07:43.974Z,73.3
2018-09-02T00:09:10.161Z,73
2018-09-02T00:09:40.697Z,73
2018-09-02T00:10:11.230Z,73.3
2018-09-02T00:11:08.447Z,73
2018-09-02T00:12:07.784Z,73
2018-09-02T00:13:07.220Z,72.7
2018-09-02T00:14:06.553Z,72.4
2018-09-02T00:15:05.782Z,72.4
2018-09-02T00:16:05.112Z,72.3
2018-09-02T00:17:04.548Z,72.1
2018-09-02T00:18:03.386Z,72.3
2018-09-02T00:19:02.721Z,72
2018-09-02T00:20:01.950Z,72
2018-09-02T00:21:01.675Z,72
2018-09-02T00:22:01.021Z,71.9
2018-09-02T00:23:00.243Z,71.9
2018-09-02T00:23:59.183Z,71.9
2018-09-02T00:24:58.637Z,71.8
2018-09-02T00:25:57.976Z,71.9
2018-09-02T00:26:57.202Z,72.4
2018-09-02T00:27:56.431Z,72.9
2018-09-02T00:28:55.764Z,72.6
2018-09-02T00:29:54.877Z,71.8
2018-09-02T00:30:54.213Z,72
2018-09-02T00:31:53.441Z,71.7
2018-09-02T00:32:52.974Z,71.5
2018-09-02T00:33:52.137Z,71.6
2018-09-02T00:34:51.360Z,71.5
2018-09-02T00:35:50.582Z,71.5
2018-09-02T00:36:50.312Z,71.5
2018-09-02T00:37:49.640Z,71.9
2018-09-02T00:38:48.466Z,71.8
2018-09-02T00:39:19.009Z,71.8
2018-09-02T00:39:49.658Z,72.2
2018-09-02T00:40:47.495Z,71.3
2018-09-02T00:41:46.316Z,71.4
2018-09-02T00:42:45.749Z,71.5
2018-09-02T00:43:45.080Z,71.2
2018-09-02T00:44:44.232Z,71.3
2018-09-02T00:45:43.669Z,71
2018-09-02T00:46:43.009Z,71.2
2018-09-02T00:47:42.255Z,71.2
2018-09-02T00:48:41.591Z,71.2
2018-09-02T00:49:40.708Z,71.2
2018-09-02T00:50:39.935Z,71.4
2018-09-02T00:51:39.551Z,71.3
2018-09-02T00:52:38.773Z,71.2
2018-09-02T00:53:38.209Z,71.2
2018-09-02T00:54:08.457Z,71.2
2018-09-02T00:54:38.560Z,71.6
2018-09-02T00:55:09.318Z,71.6
2018-09-02T00:56:35.935Z,71.5
2018-09-02T00:57:35.262Z,72
2018-09-02T00:58:34.494Z,72.2
2018-09-02T00:59:33.837Z,72.2
2018-09-02T01:00:33.054Z,71.6
2018-09-02T01:01:32.501Z,71.7
2018-09-02T01:02:31.430Z,71.6
2018-09-02T01:03:30.758Z,72.3
2018-09-02T01:04:30.085Z,72.4
2018-09-02T01:05:29.512Z,72.2
2018-09-02T01:06:28.850Z,72.2
2018-09-02T01:07:28.073Z,72.5
2018-09-02T01:08:27.508Z,72.5
2018-09-02T01:09:26.434Z,72.4
2018-09-02T01:10:25.767Z,72.2
2018-09-02T01:11:25.194Z,72.1
2018-09-02T01:12:24.311Z,72.3
2018-09-02T01:13:23.936Z,72.6
2018-09-02T01:14:22.907Z,72.4
2018-09-02T01:15:22.134Z,72.6
2018-09-02T01:17:20.957Z,72.9
2018-09-02T01:18:20.307Z,72.9
2018-09-02T01:19:19.755Z,73.2
2018-09-02T01:20:18.579Z,72.2
2018-09-02T01:21:17.804Z,72.1
2018-09-02T01:22:17.138Z,72.1
2018-09-02T01:23:16.654Z,72.6
2018-09-02T01:24:16.172Z,72.4
2018-09-02T01:25:15.114Z,72.4
2018-09-02T01:26:14.544Z,72.6
2018-09-02T01:27:13.668Z,73
2018-09-02T01:28:12.998Z,72.9
2018-09-02T01:29:12.521Z,72.9
2018-09-02T01:30:11.778Z,73.1
2018-09-02T01:31:10.710Z,73.1
2018-09-02T01:32:10.052Z,72.9
2018-09-02T01:33:09.670Z,71.9
2018-09-02T01:34:09.051Z,71.8
2018-09-02T01:34:39.689Z,71.8
2018-09-02T01:35:10.342Z,72.1
2018-09-02T01:35:40.983Z,72.1
2018-09-02T01:37:06.579Z,72.3
2018-09-02T01:38:05.905Z,72.3
2018-09-02T01:39:05.242Z,72.2
2018-09-02T01:40:04.676Z,72.6
2018-09-02T01:41:03.891Z,72.5
2018-09-02T01:42:03.222Z,72.7
2018-09-02T01:43:02.554Z,71.9
2018-09-02T01:44:01.891Z,71.7
2018-09-02T01:45:01.120Z,72
2018-09-02T01:45:31.664Z,72
2018-09-02T01:46:59.678Z,72
2018-09-02T01:47:30.226Z,72
2018-09-02T01:48:00.859Z,71.8
2018-09-02T01:48:31.395Z,71.8
2018-09-02T01:50:56.894Z,71.6
2018-09-02T01:51:56.128Z,71.5
2018-09-02T01:52:55.347Z,71.5
2018-09-02T01:53:54.460Z,71.5
2018-09-02T01:54:53.787Z,71.6
2018-09-02T01:55:53.105Z,71.4
2018-09-02T01:56:52.533Z,71.5
2018-09-02T01:57:51.763Z,71.4
2018-09-02T01:58:51.095Z,71.3
2018-09-02T01:59:50.325Z,72
2018-09-02T02:00:49.664Z,71.4
2018-09-02T02:01:48.885Z,71.4
2018-09-02T02:02:48.113Z,71.3
2018-09-02T02:03:47.329Z,71.1
2018-09-02T02:04:46.764Z,71.4
2018-09-02T02:05:45.988Z,71.6
2018-09-02T02:06:45.210Z,71.8
2018-09-02T02:07:44.546Z,71.4
2018-09-02T02:08:43.879Z,71.4
2018-09-02T02:09:43.211Z,71.6
2018-09-02T02:10:42.540Z,72
2018-09-02T02:11:41.662Z,71.5
2018-09-02T02:12:40.880Z,71.8
2018-09-02T02:13:40.202Z,72.2
2018-09-02T02:14:39.718Z,71.5
2018-09-02T02:15:38.649Z,71.8
2018-09-02T02:16:38.078Z,71.9
2018-09-02T02:18:36.693Z,71.9
2018-09-02T02:19:36.099Z,72.1
2018-09-02T02:20:35.328Z,72
2018-09-02T02:21:34.563Z,72.2
2018-09-02T02:22:34.000Z,72.2
2018-09-02T02:23:33.338Z,72
2018-09-02T02:24:32.269Z,72.1
2018-09-02T02:25:31.780Z,72.3
2018-09-02T02:26:31.110Z,72.4
2018-09-02T02:27:30.446Z,72.7
2018-09-02T02:28:29.666Z,72.8
2018-09-02T02:29:00.413Z,72.8
2018-09-02T02:29:30.848Z,72.8
2018-09-02T02:30:28.270Z,72.8
2018-09-02T02:31:27.394Z,73.3
2018-09-02T02:32:26.833Z,73.1
2018-09-02T02:33:26.163Z,73.1
2018-09-02T02:35:24.376Z,73.1
2018-09-02T02:36:23.699Z,73.2
2018-09-02T02:37:22.934Z,73.5
2018-09-02T02:38:22.669Z,73.4
2018-09-02T02:39:21.994Z,73.2
2018-09-02T02:40:20.814Z,73.5
2018-09-02T02:41:20.254Z,73.4
2018-09-02T02:42:19.574Z,73.4
2018-09-02T02:43:18.803Z,73.4
2018-09-02T02:44:18.012Z,73.2
2018-09-02T02:45:17.439Z,73.1
2018-09-02T02:46:16.785Z,73.2
2018-09-02T02:47:16.106Z,73.1
2018-09-02T02:48:15.426Z,73.7
2018-09-02T02:49:14.750Z,73.5
2018-09-02T02:50:13.743Z,73.7
2018-09-02T02:51:13.358Z,74.4
2018-09-02T02:52:12.580Z,74.2
2018-09-02T02:53:11.899Z,74.5
2018-09-02T02:54:11.213Z,74.5
2018-09-02T02:55:10.037Z,74.9
2018-09-02T02:56:09.643Z,74.9
2018-09-02T02:57:08.744Z,75
2018-09-02T02:58:08.065Z,74.9
2018-09-02T02:59:07.391Z,75.2
2018-09-02T03:00:06.724Z,74.9
2018-09-02T03:01:06.068Z,75
2018-09-02T03:02:05.081Z,75.5
2018-09-02T03:03:04.535Z,75.1
2018-09-02T03:04:03.764Z,75.4
2018-09-02T03:05:03.091Z,75
2018-09-02T03:06:02.317Z,75.2
2018-09-02T03:07:01.822Z,74.9
2018-09-02T03:08:00.931Z,74.9
2018-09-02T03:09:00.355Z,74.6
2018-09-02T03:09:59.683Z,74.6
2018-09-02T03:10:58.893Z,74.6
2018-09-02T03:11:58.215Z,75
2018-09-02T03:12:57.534Z,74.6
2018-09-02T03:13:56.859Z,74.4
2018-09-02T03:14:27.400Z,74.4
2018-09-02T03:14:57.930Z,74.1
2018-09-02T03:15:55.133Z,73.8
2018-09-02T03:16:54.347Z,73.8
2018-09-02T03:17:53.791Z,73.7
2018-09-02T03:18:53.212Z,73.5
2018-09-02T03:19:52.645Z,73.4
2018-09-02T03:20:51.468Z,73.4
2018-09-02T03:21:50.677Z,73.3
2018-09-02T03:22:50.292Z,73.5
2018-09-02T03:23:49.642Z,73
2018-09-02T03:24:20.294Z,73
2018-09-02T03:24:50.533Z,73.1
2018-09-02T03:25:20.776Z,73.1
2018-09-02T03:25:51.088Z,73.1
2018-09-02T03:26:21.715Z,73.1
2018-09-02T03:28:45.987Z,72.6
2018-09-02T03:29:45.091Z,72.5
2018-09-02T03:30:44.353Z,72.5
2018-09-02T03:31:43.653Z,72.8
2018-09-02T03:32:43.104Z,72.4
2018-09-02T03:33:42.438Z,72.2
2018-09-02T03:34:41.875Z,72.1
2018-09-02T03:35:40.792Z,72.2
2018-09-02T03:36:40.114Z,71.7
2018-09-02T03:37:39.541Z,71.6
2018-09-02T03:38:38.872Z,71.7
2018-09-02T03:39:38.092Z,71.5
2018-09-02T03:40:37.411Z,71.2
2018-09-02T03:41:36.620Z,71
2018-09-02T03:42:36.082Z,71.1
2018-09-02T03:43:35.292Z,71
2018-09-02T03:44:34.403Z,71
2018-09-02T03:45:33.728Z,71.1
2018-09-02T03:46:33.070Z,71.4
2018-09-02T03:47:32.289Z,71
2018-09-02T03:48:31.724Z,71
2018-09-02T03:49:01.857Z,71
2018-09-02T03:49:32.391Z,70.9
2018-09-02T03:50:30.205Z,70.9
2018-09-02T03:51:29.630Z,70.7
2018-09-02T03:52:28.547Z,70.8
2018-09-02T03:53:28.163Z,71.3
2018-09-02T03:54:27.485Z,70.9
2018-09-02T03:55:26.696Z,70.2
2018-09-02T03:55:57.137Z,70.2
2018-09-02T03:56:27.540Z,70
2018-09-02T03:57:25.343Z,70.2
2018-09-02T03:58:24.270Z,70.2
2018-09-02T03:59:23.593Z,69.9
2018-09-02T04:00:22.815Z,69.8
2018-09-02T04:01:22.033Z,69.6
2018-09-02T04:02:21.464Z,69.7
2018-09-02T04:03:20.788Z,69.8
2018-09-02T04:04:20.106Z,69.5
2018-09-02T04:05:19.418Z,70
2018-09-02T04:06:18.731Z,69.6
2018-09-02T04:06:48.976Z,69.6
2018-09-02T04:07:19.614Z,69.8
2018-09-02T04:07:50.136Z,69.8
2018-09-02T04:08:20.687Z,69.5
2018-09-02T04:08:51.225Z,69.5
2018-09-02T04:10:15.496Z,69.6
2018-09-02T04:11:15.076Z,69.8
2018-09-02T04:12:14.162Z,69.4
2018-09-02T04:13:13.601Z,69.6
2018-09-02T04:14:12.824Z,69.6
2018-09-02T04:15:12.032Z,69.8
2018-09-02T04:17:11.041Z,69.7
2018-09-02T04:18:10.147Z,69.6
2018-09-02T04:19:09.487Z,70
2018-09-02T04:20:08.802Z,69.5
2018-09-02T04:21:08.140Z,69.7
2018-09-02T04:22:07.344Z,69.7
2018-09-02T04:23:06.618Z,69.7
2018-09-02T04:24:06.042Z,69.8
2018-09-02T04:25:05.357Z,69.8
2018-09-02T04:26:04.472Z,69.8
2018-09-02T04:27:03.781Z,69.9
2018-09-02T04:28:03.100Z,70.2
2018-09-02T04:29:02.207Z,70.2
2018-09-02T04:30:01.605Z,70.2
2018-09-02T04:31:00.602Z,70.2
2018-09-02T04:32:00.316Z,70.3
2018-09-02T04:32:59.524Z,70.3
2018-09-02T04:33:58.455Z,70.4
2018-09-02T04:34:57.891Z,70.7
2018-09-02T04:35:57.212Z,70.6
2018-09-02T04:36:56.575Z,70.7
2018-09-02T04:37:55.944Z,70.7
2018-09-02T04:38:55.284Z,70.9
2018-09-02T04:39:54.222Z,70.9
2018-09-02T04:40:53.544Z,71
2018-09-02T04:41:52.759Z,71.1
2018-09-02T04:42:52.080Z,71.3
2018-09-02T04:43:51.392Z,71.3
2018-09-02T04:44:50.898Z,71.4
2018-09-02T04:45:49.899Z,71.8
2018-09-02T04:46:49.611Z,72
2018-09-02T04:47:48.504Z,71.8
2018-09-02T04:48:47.736Z,71.8
2018-09-02T04:49:47.245Z,71.8
2018-09-02T04:50:46.361Z,72.1
2018-09-02T04:51:45.976Z,72.3
2018-09-02T04:52:45.295Z,72.1
2018-09-02T04:53:44.520Z,72.4
2018-09-02T04:54:43.436Z,72.7
2018-09-02T04:55:42.808Z,72.8
2018-09-02T04:56:42.028Z,73
2018-09-02T04:57:41.367Z,73.7
2018-09-02T04:58:40.696Z,73.3
2018-09-02T04:59:39.909Z,73.6
2018-09-02T05:01:38.628Z,74.4
2018-09-02T05:02:38.072Z,75.2
2018-09-02T05:03:37.282Z,75.1
2018-09-02T05:04:36.440Z,75.3
2018-09-02T05:05:35.560Z,75.3
2018-09-02T05:06:34.910Z,75.5
2018-09-02T05:07:34.348Z,76.2
2018-09-02T05:09:32.944Z,76.8
2018-09-02T05:10:32.088Z,77.5
2018-09-02T05:11:31.615Z,77.6
2018-09-02T05:12:30.546Z,78
2018-09-02T05:13:30.262Z,78.4
2018-09-02T05:14:29.474Z,78.4
2018-09-02T05:15:28.800Z,78.7
2018-09-02T05:16:28.119Z,80
2018-09-02T05:17:26.934Z,80.3
2018-09-02T05:18:26.547Z,80.9
2018-09-02T05:20:24.743Z,81.2
2018-09-02T05:21:24.063Z,81.1
2018-09-02T05:22:23.777Z,81.9
2018-09-02T05:23:22.492Z,81.7
2018-09-02T05:24:22.199Z,81.8
2018-09-02T05:25:21.522Z,81.8
2018-09-02T05:26:20.754Z,81.7
2018-09-02T05:26:51.165Z,81.7
2018-09-02T05:27:21.693Z,82
2018-09-02T05:27:52.321Z,82
2018-09-02T05:29:18.498Z,83.6
2018-09-02T05:30:17.612Z,83.5
2018-09-02T05:31:17.213Z,83.4
2018-09-02T05:32:16.328Z,83.9
2018-09-02T05:33:15.554Z,84.4
2018-09-02T05:34:14.887Z,84.9
2018-09-02T05:35:14.315Z,84
2018-09-02T05:36:13.237Z,84.5
2018-09-02T05:37:12.851Z,84.3
2018-09-02T05:38:12.182Z,84.9
2018-09-02T05:40:10.385Z,85.7
2018-09-02T05:41:09.707Z,85.3
2018-09-02T05:42:09.137Z,85.4
2018-09-02T05:43:08.567Z,85.6
2018-09-02T05:44:07.782Z,86.4
2018-09-02T05:45:06.752Z,86.3
2018-09-02T05:45:37.281Z,86.3
2018-09-02T05:46:07.811Z,86.8
2018-09-02T05:46:38.339Z,86.8
2018-09-02T05:47:08.584Z,87.1
2018-09-02T05:47:39.011Z,87.1
2018-09-02T05:51:02.764Z,88.4
2018-09-02T05:53:01.080Z,88.4
2018-09-02T05:54:00.310Z,89.3
2018-09-02T05:54:59.752Z,89.4
2018-09-02T05:55:58.964Z,89.4
2018-09-02T05:56:58.275Z,89.7
2018-09-02T05:57:57.491Z,89.9
2018-09-02T05:58:56.706Z,90.5
2018-09-02T05:59:56.023Z,90.9
2018-09-02T06:01:54.627Z,91.3
2018-09-02T06:02:54.076Z,91.8
2018-09-02T06:03:53.364Z,91.6
2018-09-02T06:04:52.693Z,92
2018-09-02T06:05:51.792Z,92.2
2018-09-02T06:06:51.115Z,92.3
2018-09-02T06:07:50.330Z,92.7
2018-09-02T06:08:49.443Z,92.9
2018-09-02T06:09:48.765Z,92.7
2018-09-02T06:10:48.081Z,93.2
2018-09-02T06:12:46.568Z,93.1
2018-09-02T06:13:45.938Z,93.2
2018-09-02T06:14:45.371Z,93.3
2018-09-02T06:15:44.683Z,93.6
2018-09-02T06:16:43.603Z,93.7
2018-09-02T06:17:42.931Z,93.7
2018-09-02T06:18:42.136Z,93.8
2018-09-02T06:19:41.349Z,93.8
2018-09-02T06:20:40.692Z,94
2018-09-02T06:21:40.023Z,94.3
2018-09-02T06:22:39.347Z,94.2
2018-09-02T06:23:38.672Z,94.3
2018-09-02T06:24:37.780Z,94.5
2018-09-02T06:25:37.000Z,94.6
2018-09-02T06:26:36.203Z,94.5
2018-09-02T06:27:35.523Z,94.6
2018-09-02T06:28:34.959Z,94.3
2018-09-02T06:29:33.975Z,94.6
2018-09-02T06:30:33.300Z,94.5
2018-09-02T06:31:32.724Z,94.8
2018-09-02T06:32:32.045Z,94.9
2018-09-02T06:33:31.416Z,94.7
2018-09-02T06:34:30.358Z,94.9
2018-09-02T06:35:29.953Z,95.1
2018-09-02T06:36:29.179Z,95
2018-09-02T06:38:27.355Z,95.2
2018-09-02T06:39:26.614Z,95.2
2018-09-02T06:40:25.892Z,95.3
2018-09-02T06:41:25.329Z,95.3
2018-09-02T06:42:24.545Z,95.4
2018-09-02T06:43:23.869Z,95.5
2018-09-02T06:44:23.301Z,95.5
2018-09-02T06:45:22.522Z,95.6
2018-09-02T06:46:21.845Z,95.3
2018-09-02T06:47:21.168Z,95.3
2018-09-02T06:48:20.101Z,95.5
2018-09-02T06:49:19.471Z,95.5
2018-09-02T06:50:18.695Z,95.4
2018-09-02T06:51:18.126Z,95.4
2018-09-02T06:52:17.053Z,95.6
2018-09-02T06:53:16.375Z,95.7
2018-09-02T06:54:15.706Z,95.7
2018-09-02T06:55:15.137Z,95.6
2018-09-02T06:56:14.353Z,95.5
2018-09-02T06:57:13.665Z,95.6
2018-09-02T06:59:12.387Z,95.7
2018-09-02T07:00:11.206Z,95.5
2018-09-02T07:01:10.534Z,95.5
2018-09-02T07:02:09.801Z,95.6
2018-09-02T07:03:09.006Z,95.6
2018-09-02T07:04:08.277Z,95.7
2018-09-02T07:04:38.722Z,95.7
2018-09-02T07:05:09.365Z,95.6
2018-09-02T07:05:39.994Z,95.6
2018-09-02T07:06:10.412Z,95.7
2018-09-02T07:06:40.748Z,95.7
2018-09-02T07:07:11.299Z,95.7
2018-09-02T07:07:41.758Z,95.7
2018-09-02T07:08:12.285Z,95.8
2018-09-02T07:09:04.736Z,95.8
2018-09-02T07:10:04.061Z,96
2018-09-02T07:11:03.285Z,95.8
2018-09-02T07:12:02.755Z,95.8
2018-09-02T07:13:01.684Z,96
2018-09-02T07:14:01.192Z,96.2
2018-09-02T07:15:00.624Z,96.3
2018-09-02T07:15:59.468Z,96.2
2018-09-02T07:16:58.792Z,96.1
2018-09-02T07:17:58.111Z,96.1
2018-09-02T07:18:57.555Z,96.2
2018-09-02T07:19:56.932Z,96.5
2018-09-02T07:20:55.764Z,96.6
2018-09-02T07:21:55.081Z,96.4
2018-09-02T07:22:54.521Z,96.5
2018-09-02T07:23:24.950Z,96.5
2018-09-02T07:23:55.576Z,96.4
2018-09-02T07:24:25.820Z,96.4
2018-09-02T07:25:52.215Z,96.3
2018-09-02T07:26:51.430Z,96
2018-09-02T07:27:50.646Z,96.3
2018-09-02T07:28:49.973Z,96.2
2018-09-02T07:29:49.298Z,96.5
2018-09-02T07:30:48.623Z,96.4
2018-09-02T07:31:47.840Z,96.4
2018-09-02T07:32:46.838Z,96.6
2018-09-02T07:33:46.155Z,96.5
2018-09-02T07:34:45.762Z,96.6
2018-09-02T07:35:45.088Z,96.8
2018-09-02T07:36:44.405Z,96.7
2018-09-02T07:37:43.332Z,96.7
2018-09-02T07:38:42.759Z,96.8
2018-09-02T07:39:42.078Z,96.7
2018-09-02T07:40:41.393Z,96.7
2018-09-02T07:41:40.608Z,96.8
2018-09-02T07:42:39.815Z,96.8
2018-09-02T07:43:39.210Z,96.8
2018-09-02T07:44:38.404Z,96.8
2018-09-02T07:45:37.725Z,96.9
2018-09-02T07:46:36.945Z,96.8
2018-09-02T07:47:36.168Z,96.8
2018-09-02T07:48:35.388Z,96.9
2018-09-02T07:49:34.706Z,96.9
2018-09-02T07:50:34.031Z,96.9
2018-09-02T07:51:32.950Z,97
2018-09-02T07:52:32.479Z,97.2
2018-09-02T07:53:31.809Z,97.2
2018-09-02T07:54:31.120Z,97.1
2018-09-02T07:55:30.120Z,97.1
2018-09-02T07:56:29.343Z,97.1
2018-09-02T07:57:28.677Z,97
2018-09-02T07:58:28.039Z,97.1
2018-09-02T07:59:27.039Z,97
2018-09-02T08:00:26.413Z,97.1
2018-09-02T08:01:25.836Z,97.1
2018-09-02T08:02:25.049Z,97.2
2018-09-02T08:03:24.052Z,97.2
2018-09-02T08:04:23.367Z,97.3
2018-09-02T08:05:22.590Z,97.3
2018-09-02T08:06:21.905Z,97.4
2018-09-02T08:06:52.323Z,97.4
2018-09-02T08:07:22.954Z,97.4
2018-09-02T08:08:20.555Z,97.4
2018-09-02T08:09:19.869Z,97.5
2018-09-02T08:10:19.087Z,97.4
2018-09-02T08:11:18.407Z,97.1
2018-09-02T08:12:17.752Z,97.2
2018-09-02T08:14:16.387Z,97.4
2018-09-02T08:15:15.387Z,97.4
2018-09-02T08:16:14.711Z,97.5
2018-09-02T08:17:13.925Z,97.5
2018-09-02T08:18:13.034Z,97.6
2018-09-02T08:19:12.456Z,97.6
2018-09-02T08:21:10.715Z,97.5
2018-09-02T08:22:10.044Z,97.5
2018-09-02T08:23:09.360Z,97.6
2018-09-02T08:24:08.796Z,97.6
2018-09-02T08:25:08.012Z,97.7
2018-09-02T08:26:07.231Z,97.7
2018-09-02T08:27:06.653Z,97.7
2018-09-02T08:28:05.758Z,97.7
2018-09-02T08:29:05.080Z,97.8
2018-09-02T08:30:04.244Z,97.7
2018-09-02T08:31:03.470Z,97.8
2018-09-02T08:32:02.582Z,97.8
2018-09-02T08:33:02.359Z,97.7
2018-09-02T08:35:00.612Z,97.9
2018-09-02T08:35:59.835Z,97.9
2018-09-02T08:36:59.158Z,97.8
2018-09-02T08:37:58.468Z,97.9
2018-09-02T08:38:58.123Z,97.8
2018-09-02T08:39:56.785Z,97.9
2018-09-02T08:40:56.105Z,97.9
2018-09-02T08:41:55.422Z,97.9
2018-09-02T08:42:54.638Z,98
2018-09-02T08:43:24.880Z,98
2018-09-02T08:43:55.192Z,98
2018-09-02T08:44:26.185Z,98
2018-09-02T08:44:56.457Z,98.1
2018-09-02T08:45:52.431Z,98.1
2018-09-02T08:46:51.648Z,98.2
2018-09-02T08:47:51.042Z,98.1
2018-09-02T08:48:50.304Z,98.2
2018-09-02T08:49:49.524Z,98.1
2018-09-02T08:50:48.744Z,98.1
2018-09-02T08:51:48.179Z,98
2018-09-02T08:52:47.494Z,98
2018-09-02T08:53:46.811Z,98
2018-09-02T08:54:46.128Z,98.1
2018-09-02T08:55:16.701Z,98.1
2018-09-02T08:55:47.228Z,98.2
2018-09-02T08:56:44.316Z,98.3
2018-09-02T08:58:42.918Z,98.3
2018-09-02T08:59:42.368Z,98.4
2018-09-02T09:00:41.305Z,98.4
2018-09-02T09:01:40.718Z,98.4
2018-09-02T09:02:39.695Z,98.3
2018-09-02T09:03:39.010Z,98.4
2018-09-02T09:04:38.225Z,98.3
2018-09-02T09:05:37.655Z,98.4
2018-09-02T09:06:36.770Z,98.4
2018-09-02T09:07:36.483Z,98.3
2018-09-02T09:08:35.685Z,98.3
2018-09-02T09:09:34.542Z,98.3
2018-09-02T09:10:33.964Z,98.3
2018-09-02T09:11:33.283Z,98.3
2018-09-02T09:12:32.491Z,98.3
2018-09-02T09:13:31.814Z,98.3
2018-09-02T09:14:31.026Z,98.3
2018-09-02T09:15:30.353Z,98.4
2018-09-02T09:16:29.765Z,98.4
2018-09-02T09:17:28.730Z,98.4
2018-09-02T09:18:28.344Z,98.4
2018-09-02T09:19:27.464Z,98.5
2018-09-02T09:20:26.565Z,98.4
2018-09-02T09:21:25.912Z,98.3
2018-09-02T09:22:25.430Z,98.4
2018-09-02T09:23:24.752Z,98.4
2018-09-02T09:24:23.563Z,98.3
2018-09-02T09:25:22.886Z,98.2
2018-09-02T09:26:22.101Z,98.1
2018-09-02T09:26:52.845Z,98.1
2018-09-02T09:27:23.365Z,98.2
2018-09-02T09:27:53.688Z,98.2
2018-09-02T09:28:24.324Z,98.3
2018-09-02T09:30:19.191Z,98.4
2018-09-02T09:31:18.408Z,98.2
2018-09-02T09:32:17.853Z,98
2018-09-02T09:33:17.126Z,98.1
2018-09-02T09:34:16.341Z,98.2
2018-09-02T09:35:15.561Z,98.3
2018-09-02T09:36:14.834Z,98.3
2018-09-02T09:37:14.149Z,98.3
2018-09-02T09:37:44.720Z,98.3
2018-09-02T09:38:15.257Z,98.2
2018-09-02T09:39:12.851Z,98.2
2018-09-02T09:40:11.772Z,98.2
2018-09-02T09:42:10.484Z,98.1
2018-09-02T09:43:09.812Z,98.1
2018-09-02T09:44:09.037Z,98.1
2018-09-02T09:45:08.249Z,98.2
2018-09-02T09:46:07.554Z,98.1
2018-09-02T09:47:06.865Z,98.1
2018-09-02T09:48:05.967Z,98.1
2018-09-02T09:50:04.769Z,98.1
2018-09-02T09:51:04.100Z,98.1
2018-09-02T09:52:03.315Z,98
2018-09-02T09:53:02.536Z,97.9
2018-09-02T09:55:00.798Z,97.9
2018-09-02T09:56:00.131Z,98
2018-09-02T09:56:59.251Z,98.1
2018-09-02T09:57:58.574Z,98.1
2018-09-02T09:58:58.005Z,97.9
2018-09-02T09:59:57.114Z,97.8
2018-09-02T10:00:56.331Z,97.8
2018-09-02T10:01:55.651Z,97.9
2018-09-02T10:02:54.972Z,97.9
2018-09-02T10:03:54.605Z,97.9
2018-09-02T10:04:53.499Z,97.9
2018-09-02T10:05:52.931Z,98
2018-09-02T10:06:52.247Z,97.9
2018-09-02T10:07:51.575Z,97.9
2018-09-02T10:08:50.684Z,97.9
2018-09-02T10:09:49.859Z,98
2018-09-02T10:10:49.446Z,98
2018-09-02T10:11:48.913Z,97.9
2018-09-02T10:12:47.649Z,97.8
2018-09-02T10:13:46.857Z,97.9
2018-09-02T10:14:46.184Z,97.9
2018-09-02T10:15:45.610Z,98
2018-09-02T10:16:44.928Z,98.1
2018-09-02T10:17:44.357Z,98.1
2018-09-02T10:18:43.158Z,98.1
2018-09-02T10:19:42.466Z,98.1
2018-09-02T10:20:41.887Z,98.1
2018-09-02T10:21:41.213Z,98.3
2018-09-02T10:22:40.332Z,98.2
2018-09-02T10:23:39.758Z,98.2
2018-09-02T10:24:39.071Z,98.2
2018-09-02T10:25:38.392Z,98.2
2018-09-02T10:26:37.203Z,98.2
2018-09-02T10:27:37.021Z,98.1
2018-09-02T10:28:36.340Z,98.2
2018-09-02T10:29:35.548Z,98
2018-09-02T10:30:34.765Z,97.9
2018-09-02T10:31:34.086Z,97.9
2018-09-02T10:32:33.418Z,97.8
2018-09-02T10:33:03.947Z,97.8
2018-09-02T10:33:34.178Z,97.8
2018-09-02T10:34:31.491Z,97.8
2018-09-02T10:35:30.926Z,97.9
2018-09-02T10:36:30.367Z,97.9
2018-09-02T10:38:28.676Z,97.8
2018-09-02T10:39:28.301Z,97.9
2018-09-02T10:40:27.122Z,97.9
2018-09-02T10:41:26.504Z,97.5
2018-09-02T10:42:25.592Z,97.2
2018-09-02T10:43:25.311Z,97.3
2018-09-02T10:44:24.540Z,97.1
2018-09-02T10:45:23.866Z,97.1
2018-09-02T10:46:22.698Z,97.2
2018-09-02T10:47:22.350Z,97.3
2018-09-02T10:48:21.568Z,97.1
2018-09-02T10:49:20.900Z,97.1
2018-09-02T10:50:20.173Z,97.3
2018-09-02T10:51:19.595Z,97.2
2018-09-02T10:52:18.411Z,97.1
2018-09-02T10:53:17.845Z,97.2
2018-09-02T10:54:17.070Z,97.2
2018-09-02T10:55:16.289Z,97.3
2018-09-02T10:56:15.656Z,97.4
2018-09-02T10:57:15.086Z,97.4
2018-09-02T10:58:14.305Z,97
2018-09-02T10:59:13.522Z,96.8
2018-09-02T11:00:12.844Z,97.1
2018-09-02T11:01:11.949Z,97.1
2018-09-02T11:02:11.161Z,97
2018-09-02T11:02:41.685Z,97
2018-09-02T11:03:12.304Z,97
2018-09-02T11:04:10.017Z,96.8
2018-09-02T11:04:40.759Z,96.8
2018-09-02T11:05:11.077Z,96.8
2018-09-02T11:05:41.714Z,96.8
2018-09-02T11:08:07.001Z,96.9
2018-09-02T11:09:06.449Z,97
2018-09-02T11:10:05.560Z,97.2
2018-09-02T11:11:04.667Z,96.6
2018-09-02T11:12:03.981Z,96.3
2018-09-02T11:13:03.401Z,96.3
2018-09-02T11:14:03.268Z,96.4
2018-09-02T11:14:33.409Z,96.4
2018-09-02T11:15:04.058Z,96.4
2018-09-02T11:15:34.487Z,96.4
2018-09-02T11:16:05.039Z,96.5
2018-09-02T11:16:35.268Z,96.5
2018-09-02T11:17:59.767Z,96.7
2018-09-02T11:18:58.983Z,96.8
2018-09-02T11:19:58.237Z,96.5
2018-09-02T11:20:57.562Z,96.6
2018-09-02T11:21:56.884Z,96.5
2018-09-02T11:22:56.217Z,96.6
2018-09-02T11:23:55.664Z,96.5
2018-09-02T11:24:54.885Z,96.5
2018-09-02T11:26:53.276Z,96.2
2018-09-02T11:27:52.610Z,96
2018-09-02T11:28:51.818Z,96.2
2018-09-02T11:29:51.031Z,96
2018-09-02T11:30:50.462Z,96.2
2018-09-02T11:31:49.785Z,96.2
2018-09-02T11:32:49.101Z,96.3
2018-09-02T11:33:48.418Z,96.7
2018-09-02T11:34:47.746Z,96.5
2018-09-02T11:35:46.675Z,96.4
2018-09-02T11:36:45.999Z,96.2
2018-09-02T11:37:45.615Z,96.1
2018-09-02T11:38:44.439Z,96.1
2018-09-02T11:39:44.261Z,95.6
2018-09-02T11:40:43.476Z,95.7
2018-09-02T11:41:42.473Z,95.8
2018-09-02T11:42:41.797Z,95.6
2018-09-02T11:43:41.128Z,95.2
2018-09-02T11:44:40.561Z,95.5
2018-09-02T11:45:39.878Z,95.5
2018-09-02T11:47:38.189Z,95.6
2018-09-02T11:48:37.815Z,95.6
2018-09-02T11:49:37.039Z,95.5
2018-09-02T11:50:36.360Z,95.6
2018-09-02T11:51:35.277Z,95.7
2018-09-02T11:52:34.607Z,95.7
2018-09-02T11:53:33.829Z,95.7
2018-09-02T11:54:33.253Z,95.6
2018-09-02T11:55:32.362Z,95.2
2018-09-02T11:56:32.075Z,95.3
2018-09-02T11:57:02.213Z,95.3
2018-09-02T11:57:32.578Z,95.4
2018-09-02T11:58:03.273Z,95.4
2018-09-02T11:58:33.904Z,95.4
2018-09-02T11:59:29.603Z,95.2
2018-09-02T12:00:28.818Z,95.3
2018-09-02T12:01:28.529Z,95.4
2018-09-02T12:02:27.839Z,95.4
2018-09-02T12:03:27.059Z,95.6
2018-09-02T12:04:26.489Z,95.7
2018-09-02T12:05:25.704Z,95.7
2018-09-02T12:06:25.016Z,95.7
2018-09-02T12:07:23.970Z,95.6
2018-09-02T12:08:23.668Z,95.6
2018-09-02T12:09:22.616Z,95.5
2018-09-02T12:10:21.933Z,94.1
2018-09-02T12:11:21.292Z,94.6
2018-09-02T12:12:20.501Z,94.9
2018-09-02T12:13:19.755Z,95
2018-09-02T12:15:18.234Z,95.1
2018-09-02T12:16:17.950Z,95.3
2018-09-02T12:17:16.888Z,95
2018-09-02T12:18:16.207Z,94.6
2018-09-02T12:19:15.421Z,94.8
2018-09-02T12:20:14.852Z,95
2018-09-02T12:21:14.176Z,95.1
2018-09-02T12:22:13.594Z,95.1
2018-09-02T12:24:12.085Z,95.2
2018-09-02T12:25:11.298Z,95.2
2018-09-02T12:26:10.408Z,95.2
2018-09-02T12:27:09.733Z,95.4
2018-09-02T12:28:09.175Z,95.3
2018-09-02T12:29:08.390Z,95.1
2018-09-02T12:30:07.722Z,95.3
2018-09-02T12:31:06.951Z,95.4
2018-09-02T12:32:06.281Z,95.5
2018-09-02T12:33:05.597Z,95.6
2018-09-02T12:34:04.930Z,95.6
2018-09-02T12:35:04.171Z,95.1
2018-09-02T12:36:03.381Z,95.3
2018-09-02T12:37:03.098Z,95.5
2018-09-02T12:38:02.226Z,95.4
2018-09-02T12:39:01.341Z,95.4
2018-09-02T12:40:00.841Z,95.5
2018-09-02T12:41:00.187Z,95.6
2018-09-02T12:41:59.293Z,95.7
2018-09-02T12:42:29.709Z,95.7
2018-09-02T12:43:00.235Z,95.3
2018-09-02T12:43:30.773Z,95.3
2018-09-02T12:44:01.019Z,95.4
2018-09-02T12:44:31.654Z,95.4
2018-09-02T12:45:56.645Z,95.7
2018-09-02T12:46:55.647Z,95.8
2018-09-02T12:47:55.512Z,95.5
2018-09-02T12:49:53.524Z,95.8
2018-09-02T12:50:52.735Z,95.8
2018-09-02T12:51:51.952Z,95.8
2018-09-02T12:52:22.389Z,95.8
2018-09-02T12:52:53.021Z,95.1
2018-09-02T12:53:23.264Z,95.1
2018-09-02T12:53:53.795Z,95
2018-09-02T12:54:24.330Z,95
2018-09-02T12:54:54.750Z,95
2018-09-02T12:55:24.951Z,95
2018-09-02T12:56:48.722Z,95.2
2018-09-02T12:57:18.964Z,95.2
2018-09-02T12:57:49.592Z,95.2
2018-09-02T12:58:47.302Z,95.2
2018-09-02T12:59:46.635Z,95.3
2018-09-02T13:00:45.958Z,95.4
2018-09-02T13:01:45.385Z,95.5
2018-09-02T13:02:44.601Z,95.5
2018-09-02T13:03:43.940Z,95.6